Time;durP1;ratioP1;P1;durP2;ratioP2;P2;SDS_P1;SDS_P2;PMS_P1;PMS_P2;Temp;Humidity;BMP_temperature;BMP_pressure;BME280_temperature;BME280_humidity;BME280_pressure;Samples;Min_cycle;Max_cycle;Signal;HPM_P1;HPM_P2
2022/04/10 00:00:57;;;;;;;8.90;1.25;;;4.20;99.90;;;;;;5014780;28;20046;-69
2022/04/10 00:03:23;;;;;;;6.50;1.00;;;3.60;99.90;;;;;;5014963;28;20068;-70
2022/04/10 00:05:50;;;;;;;6.13;0.90;;;3.60;99.90;;;;;;5015802;28;20049;-70
2022/04/10 00:08:16;;;;;;;11.98;1.00;;;3.60;99.90;;;;;;5015159;28;20042;-71
2022/04/10 00:10:42;;;;;;;5.30;0.90;;;3.60;99.90;;;;;;5015472;28;20057;-70
2022/04/10 00:13:08;;;;;;;6.70;0.98;;;3.60;99.90;;;;;;5014776;28;20041;-71
2022/04/10 00:15:34;;;;;;;3.58;1.00;;;4.20;99.90;;;;;;5015022;28;20048;-70
2022/04/10 00:18:00;;;;;;;8.60;1.13;;;3.60;99.90;;;;;;5014973;28;20045;-71
2022/04/10 00:20:25;;;;;;;5.88;1.13;;;3.60;99.90;;;;;;5013933;28;20068;-71
2022/04/10 00:22:51;;;;;;;8.20;1.02;;;3.70;99.90;;;;;;5015504;28;20046;-71
2022/04/10 00:25:19;;;;;;;7.90;1.15;;;3.60;99.90;;;;;;4997575;28;20401;-71
2022/04/10 00:27:45;;;;;;;6.75;1.20;;;3.60;99.90;;;;;;4998192;28;20132;-71
2022/04/10 00:30:13;;;;;;;6.63;1.10;;;3.50;99.90;;;;;;5014382;28;20046;-71
2022/04/10 00:32:39;;;;;;;6.70;1.55;;;3.50;99.90;;;;;;5014194;28;20128;-71
2022/04/10 00:35:06;;;;;;;6.63;1.20;;;3.50;99.90;;;;;;5015895;28;20354;-70
2022/04/10 00:37:32;;;;;;;7.82;1.08;;;3.50;99.90;;;;;;5014572;28;20045;-70
2022/04/10 00:39:58;;;;;;;10.90;1.85;;;3.50;99.90;;;;;;5014232;28;20054;-70
2022/04/10 00:42:34;;;;;;;5.72;1.00;;;3.40;99.90;;;;;;5015190;28;20057;-71
2022/04/10 00:45:00;;;;;;;11.90;1.33;;;3.50;99.90;;;;;;5014894;28;20398;-70
2022/04/10 00:47:26;;;;;;;7.38;1.20;;;3.40;99.90;;;;;;5015140;28;20056;-71
2022/04/10 00:49:52;;;;;;;6.10;1.95;;;3.60;99.90;;;;;;5013681;28;20054;-69
2022/04/10 00:52:19;;;;;;;4.32;0.90;;;4.10;99.90;;;;;;5014820;28;20053;-71
2022/04/10 00:54:45;;;;;;;9.63;1.65;;;3.50;99.90;;;;;;5014957;28;20045;-71
2022/04/10 00:57:12;;;;;;;7.03;1.40;;;3.40;99.90;;;;;;5014649;28;20069;-71
2022/04/10 00:59:39;;;;;;;7.95;1.73;;;3.50;99.90;;;;;;4997793;28;20378;-71
2022/04/10 01:02:05;;;;;;;6.72;1.48;;;4.20;99.90;;;;;;5014836;28;20046;-71
2022/04/10 01:04:31;;;;;;;9.40;1.15;;;3.50;99.90;;;;;;5014447;28;20100;-70
2022/04/10 01:06:59;;;;;;;8.15;1.20;;;4.00;99.90;;;;;;5015549;28;20038;-70
2022/04/10 01:09:26;;;;;;;8.60;1.25;;;4.50;99.90;;;;;;5014127;28;20058;-69
2022/04/10 01:11:55;;;;;;;7.43;1.55;;;3.90;99.90;;;;;;5014712;28;20132;-71
2022/04/10 01:14:21;;;;;;;6.85;1.10;;;3.50;99.90;;;;;;5013477;28;20422;-69
2022/04/10 01:16:47;;;;;;;7.00;0.88;;;3.50;99.90;;;;;;5014191;28;20046;-71
2022/04/10 01:19:15;;;;;;;8.48;1.50;;;3.40;99.90;;;;;;5013615;28;20046;-71
2022/04/10 01:21:44;;;;;;;7.68;1.10;;;3.40;99.90;;;;;;5013604;28;20473;-71
2022/04/10 01:24:14;;;;;;;8.73;1.23;;;4.40;99.90;;;;;;5013238;28;20050;-71
2022/04/10 01:26:41;;;;;;;7.10;1.35;;;3.30;99.90;;;;;;5013430;28;20073;-71
2022/04/10 01:29:09;;;;;;;6.80;1.20;;;3.90;99.90;;;;;;5014333;28;20050;-70
2022/04/10 01:31:37;;;;;;;7.97;1.20;;;3.30;99.90;;;;;;4981221;28;20398;-71
2022/04/10 01:34:06;;;;;;;8.48;1.40;;;3.20;99.90;;;;;;5014269;28;20088;-70
2022/04/10 01:36:33;;;;;;;11.48;1.73;;;3.30;99.90;;;;;;5013112;28;20053;-72
2022/04/10 01:39:00;;;;;;;10.13;1.48;;;3.10;99.90;;;;;;5014203;28;20045;-71
2022/04/10 01:41:27;;;;;;;7.88;1.33;;;3.00;99.90;;;;;;5014129;28;20068;-71
2022/04/10 01:43:55;;;;;;;9.65;1.15;;;3.00;99.90;;;;;;5013165;28;20049;-70
2022/04/10 01:46:23;;;;;;;10.35;1.02;;;3.00;99.90;;;;;;5012659;28;20409;-72
2022/04/10 01:48:48;;;;;;;9.45;1.52;;;3.00;99.90;;;;;;5014123;28;20052;-71
2022/04/10 01:51:15;;;;;;;4.00;1.20;;;3.50;99.90;;;;;;4996575;28;20125;-70
2022/04/10 01:53:41;;;;;;;6.35;1.38;;;3.10;99.90;;;;;;5013018;28;20050;-71
2022/04/10 01:56:08;;;;;;;8.32;1.10;;;3.10;99.90;;;;;;5014691;28;20034;-70
2022/04/10 01:58:36;;;;;;;11.23;1.08;;;3.10;99.90;;;;;;5013071;28;20081;-72
2022/04/10 02:01:06;;;;;;;5.93;1.20;;;3.40;99.90;;;;;;5012263;28;20092;-71
2022/04/10 02:03:33;;;;;;;7.35;0.98;;;4.80;99.90;;;;;;4997250;28;20050;-71
2022/04/10 02:06:00;;;;;;;5.50;1.33;;;3.20;99.90;;;;;;5012754;28;20449;-71
2022/04/10 02:08:27;;;;;;;4.15;0.90;;;3.10;99.90;;;;;;4996736;28;20050;-72
2022/04/10 02:10:52;;;;;;;6.25;1.00;;;3.20;99.90;;;;;;5014059;28;20108;-71
2022/04/10 02:13:19;;;;;;;5.47;1.00;;;2.60;99.90;;;;;;5012766;28;20088;-71
2022/04/10 02:15:45;;;;;;;6.00;1.00;;;3.10;99.90;;;;;;5013732;28;20046;-71
2022/04/10 02:18:11;;;;;;;5.50;1.08;;;3.10;99.90;;;;;;5013770;28;20052;-72
2022/04/10 02:20:37;;;;;;;5.63;0.98;;;3.20;99.90;;;;;;5012562;28;20133;-70
2022/04/10 02:23:02;;;;;;;9.25;1.17;;;3.20;99.90;;;;;;5013484;28;20046;-70
2022/04/10 02:25:28;;;;;;;10.55;1.20;;;3.20;99.90;;;;;;5013591;28;20125;-71
2022/04/10 02:27:54;;;;;;;6.40;0.93;;;3.20;99.90;;;;;;5012626;28;20474;-72
2022/04/10 02:30:20;;;;;;;7.60;1.33;;;3.40;99.90;;;;;;5014365;28;20050;-71
2022/04/10 02:32:45;;;;;;;6.53;0.80;;;3.20;99.90;;;;;;5014254;28;20050;-71
2022/04/10 02:35:11;;;;;;;4.80;1.10;;;3.60;99.90;;;;;;5012548;28;20128;-72
2022/04/10 02:37:37;;;;;;;6.35;1.13;;;3.30;99.90;;;;;;5012802;28;20044;-71
2022/04/10 02:40:05;;;;;;;8.18;1.00;;;3.50;99.90;;;;;;5013396;28;20056;-71
2022/04/10 02:42:33;;;;;;;5.35;1.02;;;3.30;99.90;;;;;;4995993;28;20108;-72
2022/04/10 02:44:59;;;;;;;5.90;1.17;;;3.30;99.90;;;;;;5012262;28;20128;-72
2022/04/10 02:47:25;;;;;;;6.65;1.00;;;3.20;99.90;;;;;;5012410;28;20050;-72
2022/04/10 02:49:51;;;;;;;7.20;1.45;;;4.10;99.90;;;;;;5013523;28;20516;-71
2022/04/10 02:52:17;;;;;;;8.27;1.08;;;3.20;99.90;;;;;;5013762;28;20041;-69
2022/04/10 02:54:44;;;;;;;7.05;0.90;;;3.20;99.90;;;;;;5014124;28;20479;-70
2022/04/10 02:57:10;;;;;;;7.13;1.30;;;3.90;99.90;;;;;;5012201;28;20057;-71
2022/04/10 02:59:37;;;;;;;7.60;1.00;;;3.20;99.90;;;;;;5011877;28;20490;-70
2022/04/10 03:02:03;;;;;;;7.20;1.02;;;3.90;99.90;;;;;;4996415;28;20515;-71
2022/04/10 03:04:28;;;;;;;7.82;1.80;;;3.30;99.90;;;;;;5013184;28;20134;-71
2022/04/10 03:06:54;;;;;;;10.00;1.25;;;3.40;99.90;;;;;;5013722;28;20128;-70
2022/04/10 03:09:21;;;;;;;6.97;0.93;;;3.90;99.90;;;;;;5012926;28;20077;-71
2022/04/10 03:11:47;;;;;;;6.30;1.10;;;3.30;99.90;;;;;;5013330;28;20112;-71
2022/04/10 03:14:13;;;;;;;6.18;1.05;;;3.30;99.90;;;;;;5015122;28;20049;-71
2022/04/10 03:16:38;;;;;;;7.65;1.10;;;3.90;99.90;;;;;;5000344;28;20057;-69
2022/04/10 03:19:04;;;;;;;7.13;1.15;;;2.80;99.90;;;;;;5016584;28;20512;-71
2022/04/10 03:21:30;;;;;;;8.77;1.30;;;3.30;99.90;;;;;;5016615;28;20602;-71
2022/04/10 03:23:55;;;;;;;7.43;1.15;;;4.00;99.90;;;;;;5015500;28;20057;-71
2022/04/10 03:26:21;;;;;;;6.90;1.00;;;3.90;99.90;;;;;;5015352;28;20053;-71
2022/04/10 03:28:47;;;;;;;13.48;1.27;;;3.90;99.90;;;;;;5015479;28;20042;-71
2022/04/10 03:31:13;;;;;;;4.40;1.10;;;3.20;99.90;;;;;;5015378;28;20444;-71
2022/04/10 03:33:38;;;;;;;7.32;1.20;;;4.80;99.90;;;;;;5015283;28;20132;-71
2022/04/10 03:36:05;;;;;;;6.03;1.20;;;3.30;99.90;;;;;;5015010;28;20038;-71
2022/04/10 03:38:31;;;;;;;6.80;0.90;;;3.20;99.90;;;;;;4999444;28;20398;-72
2022/04/10 03:40:57;;;;;;;5.43;1.02;;;3.20;99.90;;;;;;5015202;28;20540;-71
2022/04/10 03:43:23;;;;;;;6.70;1.50;;;3.30;99.90;;;;;;5016394;28;20049;-72
2022/04/10 03:45:48;;;;;;;7.90;1.38;;;3.60;99.90;;;;;;5016981;28;20049;-71
2022/04/10 03:48:14;;;;;;;7.63;1.00;;;3.30;99.90;;;;;;5016029;28;20042;-72
2022/04/10 03:50:40;;;;;;;8.40;1.42;;;3.30;99.90;;;;;;5016923;28;20053;-71
2022/04/10 03:53:06;;;;;;;7.90;0.88;;;3.20;99.90;;;;;;5016111;28;20069;-71
2022/04/10 03:55:32;;;;;;;5.22;1.35;;;3.30;99.90;;;;;;5017137;28;20099;-70
2022/04/10 03:57:58;;;;;;;6.15;1.33;;;3.60;99.90;;;;;;5016832;28;20054;-72
2022/04/10 04:00:24;;;;;;;7.93;0.90;;;3.60;99.90;;;;;;5014730;28;20116;-71
2022/04/10 04:02:50;;;;;;;6.35;1.15;;;3.50;99.90;;;;;;5015989;28;20046;-68
2022/04/10 04:05:16;;;;;;;6.97;1.02;;;3.30;99.90;;;;;;4981986;28;20042;-71
2022/04/10 04:07:42;;;;;;;7.32;1.55;;;3.70;99.90;;;;;;5016177;28;20049;-71
2022/04/10 04:10:09;;;;;;;8.57;1.23;;;3.80;99.90;;;;;;5014832;28;20068;-71
2022/04/10 04:12:35;;;;;;;7.10;1.00;;;3.20;99.90;;;;;;4998282;28;20504;-71
2022/04/10 04:15:01;;;;;;;7.00;0.88;;;2.90;99.90;;;;;;5014761;28;20133;-71
2022/04/10 04:17:27;;;;;;;8.07;1.10;;;3.20;99.90;;;;;;5014712;28;20121;-72
2022/04/10 04:19:53;;;;;;;7.03;1.15;;;3.90;99.90;;;;;;5015704;28;20042;-71
2022/04/10 04:22:19;;;;;;;4.53;1.05;;;3.20;99.90;;;;;;5015640;28;20111;-71
2022/04/10 04:24:45;;;;;;;7.15;1.30;;;4.30;99.90;;;;;;5014640;28;20126;-71
2022/04/10 04:27:11;;;;;;;5.75;1.08;;;3.80;99.90;;;;;;5015625;28;20140;-71
2022/04/10 04:29:37;;;;;;;4.40;0.88;;;2.80;99.90;;;;;;5014252;28;20042;-71
2022/04/10 04:32:03;;;;;;;6.45;0.95;;;3.20;99.90;;;;;;5014800;28;20050;-71
2022/04/10 04:34:29;;;;;;;4.20;1.00;;;3.10;99.90;;;;;;5015891;28;20073;-70
2022/04/10 04:36:55;;;;;;;5.60;0.90;;;3.20;99.90;;;;;;5016150;28;20084;-70
2022/04/10 04:39:21;;;;;;;4.55;0.50;;;4.00;99.90;;;;;;5015025;28;20522;-70
2022/04/10 04:41:46;;;;;;;5.78;0.70;;;3.60;99.90;;;;;;5014072;28;20056;-72
2022/04/10 04:44:12;;;;;;;2.40;0.40;;;3.20;99.90;;;;;;5014121;28;20180;-70
2022/04/10 04:46:38;;;;;;;3.53;0.60;;;3.80;99.90;;;;;;5015127;28;20057;-70
2022/04/10 04:49:04;;;;;;;5.07;0.50;;;3.30;99.90;;;;;;5015130;28;20438;-71
2022/04/10 04:51:34;;;;;;;2.38;0.50;;;3.30;99.90;;;;;;5015105;28;20406;-69
2022/04/10 04:54:01;;;;;;;3.88;0.50;;;3.30;99.90;;;;;;5014321;28;20483;-69
2022/04/10 04:56:27;;;;;;;3.70;0.63;;;3.20;99.90;;;;;;4997857;28;20061;-71
2022/04/10 04:58:53;;;;;;;4.45;0.60;;;3.20;99.90;;;;;;5015678;28;20042;-71
2022/04/10 05:01:18;;;;;;;3.92;0.82;;;4.30;99.90;;;;;;4997418;28;20042;-72
2022/04/10 05:03:44;;;;;;;3.53;0.75;;;3.20;99.90;;;;;;5014614;28;20046;-71
2022/04/10 05:06:10;;;;;;;3.10;0.68;;;3.20;99.90;;;;;;5014751;28;20050;-71
2022/04/10 05:08:36;;;;;;;3.78;0.80;;;3.50;99.90;;;;;;4997420;28;20123;-71
2022/04/10 05:11:02;;;;;;;3.95;0.73;;;3.80;99.90;;;;;;5013429;28;20054;-71
2022/04/10 05:13:28;;;;;;;3.60;0.70;;;3.20;99.90;;;;;;5014145;28;20541;-71
2022/04/10 05:15:54;;;;;;;3.33;0.50;;;3.10;99.90;;;;;;5013914;28;20158;-72
2022/04/10 05:18:20;;;;;;;3.20;0.60;;;3.10;99.90;;;;;;5014212;28;20053;-72
2022/04/10 05:20:46;;;;;;;4.47;0.70;;;3.10;99.90;;;;;;5014652;28;20081;-72
2022/04/10 05:23:19;;;;;;;2.50;0.70;;;3.10;99.90;;;;;;5013185;28;20185;-72
2022/04/10 05:25:45;;;;;;;1.05;0.50;;;3.10;99.90;;;;;;5014283;28;20101;-74
2022/04/10 05:28:12;;;;;;;2.83;0.57;;;3.10;99.90;;;;;;5013041;28;20081;-73
2022/04/10 05:30:38;;;;;;;3.88;0.60;;;3.00;99.90;;;;;;4997140;28;20048;-74
2022/04/10 05:33:04;;;;;;;4.72;0.63;;;4.00;99.90;;;;;;5014088;28;20049;-74
2022/04/10 05:35:29;;;;;;;3.80;0.70;;;3.00;99.90;;;;;;5014010;28;20509;-74
2022/04/10 05:37:55;;;;;;;4.88;0.70;;;3.20;99.90;;;;;;5012846;28;20057;-75
2022/04/10 05:40:22;;;;;;;4.10;1.17;;;2.80;99.90;;;;;;5012712;28;20453;-75
2022/04/10 05:42:48;;;;;;;3.83;0.50;;;3.00;99.90;;;;;;5012979;28;20060;-75
2022/04/10 05:45:14;;;;;;;2.47;0.70;;;3.40;99.90;;;;;;5014169;28;20042;-74
2022/04/10 05:47:41;;;;;;;6.32;0.98;;;4.10;99.90;;;;;;4996343;28;20140;-74
2022/04/10 05:50:08;;;;;;;3.90;0.77;;;3.20;99.90;;;;;;5013825;28;20053;-73
2022/04/10 05:52:38;;;;;;;7.05;0.60;;;3.20;99.90;;;;;;5013837;28;20050;-74
2022/04/10 05:55:05;;;;;;;2.08;0.60;;;4.00;99.90;;;;;;5013058;28;20049;-74
2022/04/10 05:57:30;;;;;;;5.25;0.57;;;3.30;99.90;;;;;;5013644;28;20049;-72
2022/04/10 05:59:56;;;;;;;4.07;0.60;;;3.30;99.90;;;;;;5014488;28;20041;-73
2022/04/10 06:02:22;;;;;;;6.10;0.80;;;3.30;99.90;;;;;;5013840;28;20471;-73
2022/04/10 06:04:47;;;;;;;4.75;0.88;;;3.60;99.90;;;;;;5013040;28;20387;-73
2022/04/10 06:07:13;;;;;;;5.68;0.70;;;3.50;99.90;;;;;;5012999;28;20108;-74
2022/04/10 06:09:39;;;;;;;4.38;0.70;;;4.40;99.90;;;;;;5014421;28;20085;-73
2022/04/10 06:12:05;;;;;;;4.70;0.88;;;3.70;99.90;;;;;;5014063;28;20412;-73
2022/04/10 06:14:31;;;;;;;3.42;0.57;;;3.60;99.90;;;;;;5014305;28;20045;-72
2022/04/10 06:16:57;;;;;;;4.82;0.80;;;4.00;99.90;;;;;;5012025;28;20479;-73
2022/04/10 06:19:23;;;;;;;3.15;0.40;;;3.80;99.90;;;;;;5013950;28;20111;-73
2022/04/10 06:21:48;;;;;;;4.30;0.70;;;4.70;99.90;;;;;;5012318;28;20128;-73
2022/04/10 06:24:14;;;;;;;2.53;0.43;;;3.80;99.90;;;;;;5012056;28;20120;-74
2022/04/10 06:26:41;;;;;;;1.00;0.60;;;3.90;99.90;;;;;;5013403;28;20049;-73
2022/04/10 06:29:07;;;;;;;3.15;0.55;;;3.80;99.90;;;;;;5013377;28;20053;-73
2022/04/10 06:31:32;;;;;;;4.18;0.57;;;3.90;99.90;;;;;;5013511;28;20050;-73
2022/04/10 06:33:58;;;;;;;3.38;0.55;;;4.10;99.90;;;;;;5013083;28;20472;-72
2022/04/10 06:36:24;;;;;;;3.42;0.70;;;4.00;99.90;;;;;;5012329;28;20052;-73
2022/04/10 06:38:50;;;;;;;6.18;0.70;;;3.60;99.90;;;;;;5013375;28;20135;-72
2022/04/10 06:41:16;;;;;;;4.70;0.60;;;4.00;99.90;;;;;;5012077;28;20050;-73
2022/04/10 06:43:42;;;;;;;4.78;0.60;;;4.10;99.90;;;;;;5012241;28;20474;-71
2022/04/10 06:46:08;;;;;;;4.70;0.75;;;4.10;99.90;;;;;;4995854;28;20434;-75
2022/04/10 06:48:38;;;;;;;4.15;0.50;;;4.20;99.90;;;;;;4998403;28;20072;-72
2022/04/10 06:51:04;;;;;;;1.83;0.63;;;4.70;99.90;;;;;;5016471;28;20093;-73
2022/04/10 06:53:30;;;;;;;2.72;0.60;;;4.30;99.90;;;;;;5017349;28;20089;-72
2022/04/10 06:55:56;;;;;;;2.40;0.60;;;3.90;99.90;;;;;;5015849;28;20075;-72
2022/04/10 06:58:22;;;;;;;1.90;0.47;;;3.80;99.90;;;;;;5016931;28;20100;-72
2022/04/10 07:00:52;;;;;;;4.63;0.80;;;3.80;99.90;;;;;;5017393;28;20412;-72
2022/04/10 07:03:18;;;;;;;4.45;0.70;;;4.00;99.90;;;;;;5015351;28;20096;-71
2022/04/10 07:05:44;;;;;;;4.93;0.63;;;3.90;99.90;;;;;;5015603;28;20069;-71
2022/04/10 07:08:10;;;;;;;3.92;0.65;;;3.60;99.90;;;;;;5017274;28;20054;-72
2022/04/10 07:10:38;;;;;;;6.75;0.77;;;3.60;99.90;;;;;;5016556;28;20050;-73
2022/04/10 07:13:05;;;;;;;5.35;1.35;;;3.90;99.90;;;;;;5016630;28;20081;-72
2022/04/10 07:15:31;;;;;;;4.30;1.00;;;3.70;99.90;;;;;;5015658;28;20057;-73
2022/04/10 07:17:58;;;;;;;4.90;0.82;;;3.80;99.90;;;;;;5016153;28;20099;-73
2022/04/10 07:20:25;;;;;;;1.33;0.50;;;3.80;99.90;;;;;;5015630;28;20512;-73
2022/04/10 07:25:35;;;;;;;3.17;0.80;;;3.90;99.90;;;;;;5017178;28;20055;-72
2022/04/10 07:28:01;;;;;;;2.55;0.40;;;3.80;99.90;;;;;;4999140;28;20497;-72
2022/04/10 07:30:27;;;;;;;2.75;0.50;;;4.00;99.90;;;;;;4999369;28;20132;-70
2022/04/10 07:32:54;;;;;;;3.15;0.60;;;4.10;99.90;;;;;;5015443;28;20193;-70
2022/04/10 07:35:21;;;;;;;6.25;1.40;;;4.20;99.90;;;;;;5016595;28;20057;-70
2022/04/10 07:37:48;;;;;;;3.15;0.60;;;4.10;99.90;;;;;;5016557;28;20046;-70
2022/04/10 07:40:14;;;;;;;5.30;0.68;;;4.20;99.90;;;;;;5017146;28;20050;-70
2022/04/10 07:42:43;;;;;;;5.40;0.90;;;4.40;99.90;;;;;;5015515;28;20049;-71
2022/04/10 07:45:10;;;;;;;3.67;0.63;;;4.70;99.90;;;;;;5016369;28;20042;-70
2022/04/10 07:47:36;;;;;;;4.32;0.77;;;5.30;99.90;;;;;;5015288;28;20092;-69
2022/04/10 07:50:03;;;;;;;3.30;0.82;;;4.70;99.90;;;;;;5015650;28;20116;-70
2022/04/10 07:52:29;;;;;;;4.97;1.23;;;4.70;99.90;;;;;;5015284;28;20371;-70
2022/04/10 07:54:55;;;;;;;3.88;1.02;;;4.80;99.90;;;;;;4997596;28;20048;-69
2022/04/10 07:57:20;;;;;;;5.78;0.90;;;4.70;99.90;;;;;;5014670;28;20046;-69
2022/04/10 07:59:46;;;;;;;2.90;0.60;;;4.70;99.90;;;;;;5014673;28;20046;-69
2022/04/10 08:02:12;;;;;;;7.45;0.73;;;4.80;99.90;;;;;;5015667;28;20081;-69
2022/04/10 08:04:38;;;;;;;4.15;0.70;;;4.70;99.90;;;;;;5014400;28;20038;-67
2022/04/10 08:07:04;;;;;;;2.55;0.70;;;5.20;99.90;;;;;;5015597;28;20049;-69
2022/04/10 08:09:31;;;;;;;5.88;0.90;;;5.40;99.90;;;;;;5015056;28;20097;-69
2022/04/10 08:11:58;;;;;;;4.03;0.65;;;6.00;99.90;;;;;;5016043;28;20045;-69
2022/04/10 08:14:23;;;;;;;3.50;0.80;;;5.30;99.90;;;;;;5015400;28;20061;-67
2022/04/10 08:16:49;;;;;;;4.18;0.95;;;5.30;99.90;;;;;;5013873;28;20049;-72
2022/04/10 08:19:15;;;;;;;1.95;0.55;;;5.60;99.90;;;;;;5014165;28;20041;-68
2022/04/10 08:21:41;;;;;;;5.82;0.80;;;5.40;99.90;;;;;;5014287;28;20072;-69
2022/04/10 08:24:09;;;;;;;2.03;0.60;;;5.70;99.90;;;;;;5013636;28;20045;-70
2022/04/10 08:26:34;;;;;;;4.57;0.65;;;5.60;99.90;;;;;;5015054;28;20372;-71
2022/04/10 08:29:00;;;;;;;5.68;0.60;;;5.70;99.90;;;;;;5013835;28;20104;-71
2022/04/10 08:31:28;;;;;;;3.95;0.70;;;5.80;99.90;;;;;;5013736;28;20045;-70
2022/04/10 08:33:54;;;;;;;5.22;1.10;;;5.80;99.90;;;;;;5013647;28;20050;-72
2022/04/10 08:36:19;;;;;;;3.40;1.00;;;5.90;99.90;;;;;;4997905;28;20108;-74
2022/04/10 08:38:46;;;;;;;6.38;0.70;;;6.00;99.90;;;;;;4997893;28;20042;-73
2022/04/10 08:41:13;;;;;;;7.00;0.63;;;6.00;99.90;;;;;;5013778;28;20053;-73
2022/04/10 08:43:39;;;;;;;5.32;0.80;;;6.00;99.90;;;;;;5013090;28;20565;-74
2022/04/10 08:46:06;;;;;;;3.38;0.70;;;6.00;99.90;;;;;;4981521;28;20137;-71
2022/04/10 08:48:33;;;;;;;3.97;0.70;;;6.00;99.90;;;;;;4997287;28;20065;-73
2022/04/10 08:51:01;;;;;;;5.30;0.60;;;6.10;99.90;;;;;;4998129;28;20057;-71
2022/04/10 08:53:27;;;;;;;5.50;0.70;;;6.20;99.90;;;;;;5013664;28;20459;-75
2022/04/10 08:55:54;;;;;;;4.28;0.77;;;6.30;99.90;;;;;;4997138;28;20046;-73
2022/04/10 08:58:20;;;;;;;4.15;0.85;;;6.40;99.90;;;;;;4997036;28;20054;-72
2022/04/10 09:00:46;;;;;;;5.43;0.77;;;6.40;99.90;;;;;;5013531;28;20402;-71
2022/04/10 09:03:12;;;;;;;4.63;0.70;;;6.50;99.90;;;;;;4997954;28;20488;-69
2022/04/10 09:05:40;;;;;;;7.20;0.60;;;6.50;99.90;;;;;;4997006;28;20124;-70
2022/04/10 09:08:17;;;;;;;3.60;0.60;;;6.60;99.90;;;;;;5013146;28;20478;-70
2022/04/10 09:10:52;;;;;;;6.32;0.85;;;6.70;99.90;;;;;;5012232;28;20105;-72
2022/04/10 09:13:47;;;;;;;7.50;0.70;;;6.80;99.90;;;;;;5014001;28;20061;-69
2022/04/10 09:16:17;;;;;;;3.70;0.60;;;6.90;99.90;;;;;;4997299;28;20061;-71
2022/04/10 09:19:18;;;;;;;3.38;0.77;;;6.90;99.90;;;;;;4996955;28;20050;-74
2022/04/10 09:21:44;;;;;;;6.85;0.98;;;6.80;99.90;;;;;;5001926;28;20054;-72
2022/04/10 09:24:12;;;;;;;6.35;0.85;;;6.80;99.90;;;;;;5014115;28;20086;-74
2022/04/10 09:26:57;;;;;;;5.75;0.65;;;6.90;99.90;;;;;;5014488;28;20072;-71
2022/04/10 09:29:24;;;;;;;4.38;0.70;;;6.90;99.90;;;;;;5012786;28;20046;-71
2022/04/10 09:31:51;;;;;;;2.00;0.50;;;6.80;99.90;;;;;;5012808;28;20128;-71
2022/04/10 09:34:21;;;;;;;3.50;0.50;;;7.00;99.90;;;;;;5012483;28;20046;-71
2022/04/10 09:37:01;;;;;;;3.40;0.57;;;6.80;99.90;;;;;;5013931;28;20050;-72
2022/04/10 09:39:32;;;;;;;3.30;0.40;;;6.80;99.90;;;;;;4996298;28;20056;-72
2022/04/10 09:42:03;;;;;;;2.15;0.40;;;6.90;99.90;;;;;;5013507;28;20485;-74
2022/04/10 09:44:33;;;;;;;3.03;0.60;;;7.00;99.90;;;;;;5012758;28;20085;-73
2022/04/10 09:47:01;;;;;;;3.00;0.40;;;7.10;99.90;;;;;;5012731;28;20053;-70
2022/04/10 09:49:35;;;;;;;4.00;0.30;;;7.10;99.90;;;;;;5012623;28;20561;-71
2022/04/10 09:52:02;;;;;;;2.80;0.70;;;7.20;99.90;;;;;;5013438;28;20045;-70
2022/04/10 09:54:48;;;;;;;3.13;0.47;;;7.20;99.90;;;;;;5013928;28;20395;-73
2022/04/10 09:57:16;;;;;;;5.15;1.10;;;7.40;99.90;;;;;;5013305;28;20050;-71
2022/04/10 09:59:47;;;;;;;4.38;0.75;;;7.20;99.90;;;;;;5013673;28;20092;-69
2022/04/10 10:02:18;;;;;;;7.72;1.63;;;7.30;99.90;;;;;;5013775;28;20070;-72
2022/04/10 10:04:46;;;;;;;3.63;0.70;;;7.50;99.90;;;;;;5013280;28;20045;-68
2022/04/10 10:07:14;;;;;;;2.90;0.57;;;7.50;99.90;;;;;;5012945;28;20046;-70
2022/04/10 10:09:40;;;;;;;2.65;0.60;;;7.50;99.90;;;;;;5012402;28;20056;-73
2022/04/10 10:12:08;;;;;;;3.38;0.70;;;7.60;99.90;;;;;;5013272;28;20060;-70
2022/04/10 10:14:35;;;;;;;3.35;0.70;;;7.70;99.90;;;;;;4996533;28;20089;-70
2022/04/10 10:17:03;;;;;;;2.47;0.73;;;7.80;99.90;;;;;;4980837;28;20046;-69
2022/04/10 10:19:38;;;;;;;3.40;0.80;;;7.80;99.90;;;;;;5013761;28;20077;-71
2022/04/10 10:22:08;;;;;;;4.10;0.73;;;7.70;99.90;;;;;;5013318;28;20089;-70
2022/04/10 10:24:49;;;;;;;3.20;0.40;;;7.60;99.90;;;;;;5012452;28;20053;-71
2022/04/10 10:27:23;;;;;;;4.25;0.73;;;7.50;99.90;;;;;;5014593;28;20107;-70
2022/04/10 10:30:07;;;;;;;0.95;0.30;;;7.60;99.90;;;;;;5012789;28;20061;-72
2022/04/10 10:32:46;;;;;;;1.23;0.35;;;7.70;99.90;;;;;;5013432;28;20081;-69
2022/04/10 10:35:32;;;;;;;1.98;0.35;;;7.80;99.90;;;;;;4996132;28;20050;-71
2022/04/10 10:37:58;;;;;;;1.02;0.30;;;7.80;99.90;;;;;;5013524;28;20049;-70
2022/04/10 10:40:23;;;;;;;2.28;0.40;;;7.90;99.90;;;;;;5014046;28;20042;-75
2022/04/10 10:42:51;;;;;;;0.80;0.38;;;8.00;99.90;;;;;;4996862;28;20541;-70
2022/04/10 10:45:37;;;;;;;2.40;0.95;;;7.80;99.90;;;;;;5013561;28;20104;-71
2022/04/10 10:48:23;;;;;;;4.72;0.77;;;7.80;99.90;;;;;;4997200;28;20046;-70
2022/04/10 10:50:53;;;;;;;2.70;0.40;;;7.80;99.90;;;;;;5011855;28;20057;-70
2022/04/10 10:53:42;;;;;;;1.42;0.38;;;7.80;99.90;;;;;;4996064;28;20054;-69
2022/04/10 10:56:31;;;;;;;4.22;0.40;;;7.80;99.90;;;;;;4995905;28;20050;-71
2022/04/10 10:59:21;;;;;;;2.17;0.40;;;7.80;99.90;;;;;;5013335;28;20115;-71
2022/04/10 11:02:02;;;;;;;0.70;0.30;;;7.80;99.90;;;;;;5013184;28;20050;-72
2022/04/10 11:04:31;;;;;;;2.13;0.35;;;7.90;99.90;;;;;;5013384;28;20100;-73
2022/04/10 11:07:27;;;;;;;2.25;0.55;;;8.00;99.90;;;;;;5012762;28;20382;-69
2022/04/10 11:09:58;;;;;;;3.00;0.40;;;8.20;99.90;;;;;;4995968;28;20081;-71
2022/04/10 11:12:32;;;;;;;1.58;0.40;;;8.30;99.90;;;;;;5012737;28;20058;-72
2022/04/10 11:15:03;;;;;;;1.55;0.40;;;8.30;99.90;;;;;;5012735;28;20062;-71
2022/04/10 11:17:31;;;;;;;2.22;0.40;;;8.40;99.90;;;;;;4996125;28;20050;-70
2022/04/10 11:20:01;;;;;;;2.15;0.40;;;8.40;99.90;;;;;;4996159;28;20084;-70
2022/04/10 11:22:33;;;;;;;1.83;0.45;;;8.30;99.90;;;;;;5013059;28;20386;-71
2022/04/10 11:25:07;;;;;;;2.17;0.40;;;8.40;99.90;;;;;;5013051;28;20100;-71
2022/04/10 11:27:42;;;;;;;1.92;0.50;;;8.30;99.90;;;;;;5012261;28;20061;-71
2022/04/10 11:30:13;;;;;;;1.27;0.43;;;8.30;99.90;;;;;;5012016;28;20082;-71
2022/04/10 11:32:47;;;;;;;1.60;0.60;;;8.30;99.90;;;;;;5012146;28;20052;-70
2022/04/10 11:35:14;;;;;;;2.55;0.47;;;8.30;99.90;;;;;;5016565;28;20046;-70
2022/04/10 11:37:41;;;;;;;2.40;0.50;;;8.20;99.90;;;;;;5015537;28;20058;-70
2022/04/10 11:40:10;;;;;;;3.00;0.47;;;8.20;99.90;;;;;;5016416;28;20469;-71
2022/04/10 11:42:36;;;;;;;4.45;0.40;;;8.20;99.90;;;;;;5015707;28;20042;-71
2022/04/10 11:45:03;;;;;;;2.20;0.50;;;8.40;99.90;;;;;;5015066;28;20124;-73
2022/04/10 11:47:29;;;;;;;2.47;0.32;;;8.20;99.90;;;;;;4983117;28;20054;-73
2022/04/10 11:49:56;;;;;;;2.47;0.63;;;8.30;99.90;;;;;;5015239;28;20137;-71
2022/04/10 11:52:23;;;;;;;2.72;0.50;;;8.40;99.90;;;;;;4998649;28;20050;-75
2022/04/10 11:54:50;;;;;;;2.28;0.40;;;8.50;99.90;;;;;;5015429;28;20380;-75
2022/04/10 11:57:16;;;;;;;4.10;0.50;;;8.70;99.90;;;;;;4998668;28;20053;-76
2022/04/10 11:59:43;;;;;;;1.88;0.52;;;8.90;99.90;;;;;;4982790;28;20137;-73
2022/04/10 12:02:14;;;;;;;2.85;0.50;;;8.90;99.90;;;;;;5014969;28;20128;-75
2022/04/10 12:04:41;;;;;;;2.75;0.50;;;9.00;99.90;;;;;;5015432;28;20053;-73
2022/04/10 12:07:12;;;;;;;2.42;0.40;;;9.10;99.90;;;;;;4999329;28;20100;-75
2022/04/10 12:09:38;;;;;;;4.43;0.63;;;9.10;99.90;;;;;;4998704;28;20096;-73
2022/04/10 12:12:05;;;;;;;2.55;0.50;;;9.20;99.90;;;;;;5016743;28;20082;-75
2022/04/10 12:14:30;;;;;;;4.40;0.63;;;9.20;99.90;;;;;;4983497;28;20046;-73
2022/04/10 12:16:56;;;;;;;2.33;0.45;;;9.30;99.90;;;;;;4999420;28;20540;-76
2022/04/10 12:19:34;;;;;;;2.03;0.47;;;9.30;99.90;;;;;;5000870;28;20089;-75
2022/04/10 12:22:07;;;;;;;3.67;0.60;;;9.30;99.90;;;;;;5015206;28;20084;-76
2022/04/10 12:24:35;;;;;;;2.33;0.40;;;9.40;99.90;;;;;;4999015;28;20486;-74
2022/04/10 12:27:04;;;;;;;2.25;0.40;;;9.30;99.90;;;;;;5015639;28;20377;-73
2022/04/10 12:29:30;;;;;;;1.83;0.70;;;9.10;99.90;;;;;;4999310;28;20234;-73
2022/04/10 12:31:57;;;;;;;1.63;0.40;;;8.90;99.90;;;;;;5014502;28;20046;-73
2022/04/10 12:34:23;;;;;;;5.80;0.70;;;8.80;99.90;;;;;;4982069;28;20060;-73
2022/04/10 12:36:52;;;;;;;4.82;1.20;;;8.70;99.90;;;;;;5014213;28;20136;-73
2022/04/10 12:39:29;;;;;;;4.57;0.63;;;8.70;99.90;;;;;;5015309;28;20394;-72
2022/04/10 12:42:09;;;;;;;4.80;0.70;;;8.90;99.90;;;;;;5015323;28;20133;-74
2022/04/10 12:44:39;;;;;;;5.78;0.80;;;9.10;99.90;;;;;;5015177;28;20057;-70
2022/04/10 12:47:07;;;;;;;2.47;0.50;;;9.20;99.90;;;;;;5014814;28;20053;-73
2022/04/10 12:49:35;;;;;;;1.83;0.40;;;9.20;99.90;;;;;;4998308;28;20045;-72
2022/04/10 12:52:03;;;;;;;3.92;0.45;;;9.30;99.90;;;;;;5014409;28;20046;-74
2022/04/10 12:54:38;;;;;;;3.67;0.70;;;9.20;99.90;;;;;;4998723;28;20111;-71
2022/04/10 12:57:06;;;;;;;1.90;0.32;;;9.30;99.90;;;;;;4998115;28;20103;-75
2022/04/10 12:59:35;;;;;;;5.10;0.40;;;9.50;99.90;;;;;;5014209;28;20370;-74
2022/04/10 13:02:02;;;;;;;2.70;0.40;;;9.60;99.90;;;;;;4997629;28;20073;-72
2022/04/10 13:04:31;;;;;;;3.33;0.50;;;9.70;99.90;;;;;;4997732;28;20054;-76